createdAt,value
2022-07-25T00:00:16.340Z,96936.19
2022-07-25T00:02:44.947Z,96928.22
2022-07-25T00:05:13.373Z,96918.72
2022-07-25T00:07:43.063Z,96925.06
2022-07-25T00:10:12.315Z,96913.94
2022-07-25T00:12:40.995Z,96906.03
2022-07-25T00:15:10.557Z,96911.56
2022-07-25T00:17:39.893Z,96904.41
2022-07-25T00:20:10.338Z,96910.72
2022-07-25T00:22:38.691Z,96902.78
2022-07-25T00:25:09.562Z,96906.38
2022-07-25T00:27:37.839Z,96900.78
2022-07-25T00:30:08.002Z,96903.56
2022-07-25T00:32:36.577Z,96907.09
2022-07-25T00:35:05.578Z,96910.72
2022-07-25T00:37:33.930Z,96907.53
2022-07-25T00:40:03.441Z,96904.38
2022-07-25T00:42:34.366Z,96903.56
2022-07-25T00:45:02.672Z,96899.22
2022-07-25T00:47:31.386Z,96899.22
2022-07-25T00:49:59.994Z,96895.22
2022-07-25T00:52:28.760Z,96891.66
2022-07-25T00:54:57.843Z,96887.63
2022-07-25T00:57:26.396Z,96886.38
2022-07-25T00:59:56.101Z,96882.00
2022-07-25T01:02:24.981Z,96878.03
2022-07-25T01:04:54.439Z,96881.19
2022-07-25T01:07:22.986Z,96892.69
2022-07-25T01:09:51.769Z,96883.19
2022-07-25T01:12:20.457Z,96882.72
2022-07-25T01:14:48.724Z,96881.50
2022-07-25T01:17:18.711Z,96876.72
2022-07-25T01:19:47.364Z,96879.47
2022-07-25T01:22:16.976Z,96873.91
2022-07-25T01:24:45.586Z,96876.28
2022-07-25T01:27:17.183Z,96874.28
2022-07-25T01:29:45.895Z,96875.00
2022-07-25T01:32:14.196Z,96870.50
2022-07-25T01:34:42.780Z,96869.69
2022-07-25T01:37:11.047Z,96872.84
2022-07-25T01:39:40.655Z,96868.50
2022-07-25T01:42:09.056Z,96868.13
2022-07-25T01:44:37.647Z,96872.16
2022-07-25T01:47:06.303Z,96864.59
2022-07-25T01:49:35.001Z,96860.59
2022-07-25T01:52:03.733Z,96851.88
2022-07-25T01:54:32.226Z,96866.09
2022-07-25T01:57:01.900Z,96854.22
2022-07-25T01:59:30.579Z,96850.59
2022-07-25T02:01:58.929Z,96852.56
2022-07-25T02:04:27.361Z,96848.84
2022-07-25T02:06:55.765Z,96850.78
2022-07-25T02:09:24.399Z,96851.09
2022-07-25T02:11:53.025Z,96847.09
2022-07-25T02:14:24.225Z,96851.16
2022-07-25T02:16:52.727Z,96846.13
2022-07-25T02:19:21.114Z,96844.19
2022-07-25T02:21:49.443Z,96845.78
2022-07-25T02:24:17.808Z,96846.09
2022-07-25T02:26:46.407Z,96849.72
2022-07-25T02:29:14.673Z,96839.50
2022-07-25T02:31:44.323Z,96848.56
2022-07-25T02:34:13.988Z,96840.84
2022-07-25T02:36:42.394Z,96846.66
2022-07-25T02:39:10.705Z,96843.03
2022-07-25T02:41:39.307Z,96839.19
2022-07-25T02:44:08.417Z,96834.88
2022-07-25T02:46:37.308Z,96833.72
2022-07-25T02:49:07.108Z,96838.44
2022-07-25T02:51:35.471Z,96846.59
2022-07-25T02:54:03.771Z,96840.66
2022-07-25T02:56:33.232Z,96844.28
2022-07-25T02:59:01.907Z,96850.28
2022-07-25T03:01:30.809Z,96843.53
2022-07-25T03:03:59.248Z,96845.06
2022-07-25T03:06:29.070Z,96834.25
2022-07-25T03:08:57.383Z,96838.94
2022-07-25T03:11:25.647Z,96839.56
2022-07-25T03:13:54.954Z,96836.06
2022-07-25T03:16:23.289Z,96834.88
2022-07-25T03:18:52.183Z,96835.25
2022-07-25T03:21:20.526Z,96831.22
2022-07-25T03:23:52.716Z,96839.84
2022-07-25T03:26:21.733Z,96833.63
2022-07-25T03:28:50.087Z,96829.88
2022-07-25T03:31:18.443Z,96835.59
2022-07-25T03:33:47.064Z,96838.97
2022-07-25T03:36:15.365Z,96836.72
2022-07-25T03:38:43.627Z,96833.97
2022-07-25T03:41:13.963Z,96833.72
2022-07-25T03:43:42.262Z,96827.75
2022-07-25T03:46:10.613Z,96829.00
2022-07-25T03:48:39.058Z,96830.25
2022-07-25T03:51:07.607Z,96825.84
2022-07-25T03:53:56.745Z,96828.59
2022-07-25T03:56:26.470Z,96824.16
2022-07-25T03:58:55.031Z,96823.41
2022-07-25T04:01:23.694Z,96818.78
2022-07-25T04:03:55.437Z,96823.25
2022-07-25T04:06:24.483Z,96820.59
2022-07-25T04:08:53.273Z,96819.38
2022-07-25T04:11:21.693Z,96811.41
2022-07-25T04:13:52.681Z,96814.16
2022-07-25T04:16:22.713Z,96809.28
2022-07-25T04:18:52.300Z,96805.72
2022-07-25T04:21:21.068Z,96810.88
2022-07-25T04:23:49.873Z,96805.03
2022-07-25T04:26:18.828Z,96806.69
2022-07-25T04:28:47.250Z,96806.69
2022-07-25T04:31:17.154Z,96801.56
2022-07-25T04:33:46.230Z,96793.66
2022-07-25T04:36:14.612Z,96792.06
2022-07-25T04:38:43.083Z,96789.38
2022-07-25T04:41:11.698Z,96788.66
2022-07-25T04:43:43.597Z,96794.28
2022-07-25T04:46:19.450Z,96799.91
2022-07-25T04:48:48.150Z,96796.31
2022-07-25T04:51:16.945Z,96793.59
2022-07-25T04:53:45.685Z,96789.28
2022-07-25T04:56:14.087Z,96791.69
2022-07-25T04:58:42.454Z,96798.91
2022-07-25T05:01:10.814Z,96793.03
2022-07-25T05:03:40.571Z,96795.88
2022-07-25T05:06:09.631Z,96783.63
2022-07-25T05:08:38.275Z,96778.47
2022-07-25T05:11:06.869Z,96783.25
2022-07-25T05:13:35.367Z,96782.06
2022-07-25T05:16:03.933Z,96784.50
2022-07-25T05:18:32.277Z,96779.72
2022-07-25T05:21:02.023Z,96785.66
2022-07-25T05:23:30.665Z,96795.19
2022-07-25T05:25:58.939Z,96793.56
2022-07-25T05:28:27.311Z,96792.72
2022-07-25T05:30:55.611Z,96796.31
2022-07-25T05:33:23.862Z,96797.47
2022-07-25T05:35:52.136Z,96797.44
2022-07-25T05:38:21.762Z,96797.00
2022-07-25T05:40:52.140Z,96788.19
2022-07-25T05:43:20.834Z,96792.53
2022-07-25T05:45:49.222Z,96788.88
2022-07-25T05:48:17.700Z,96793.25
2022-07-25T05:50:46.985Z,96790.00
2022-07-25T05:53:15.215Z,96792.72
2022-07-25T05:55:44.834Z,96781.09
2022-07-25T05:58:13.130Z,96784.56
2022-07-25T06:00:41.808Z,96773.31
2022-07-25T06:03:10.167Z,96777.50
2022-07-25T06:05:38.540Z,96773.44
2022-07-25T06:08:07.327Z,96773.19
2022-07-25T06:10:35.704Z,96763.06
2022-07-25T06:13:07.254Z,96763.97
2022-07-25T06:15:36.048Z,96760.91
2022-07-25T06:18:04.455Z,96753.56
2022-07-25T06:20:32.777Z,96757.72
2022-07-25T06:23:03.186Z,96753.88
2022-07-25T06:25:31.706Z,96762.03
2022-07-25T06:28:01.066Z,96761.75
2022-07-25T06:30:31.017Z,96763.91
2022-07-25T06:32:59.450Z,96754.41
2022-07-25T06:35:27.782Z,96764.84
2022-07-25T06:37:55.994Z,96754.94
2022-07-25T06:40:24.450Z,96759.09
2022-07-25T06:42:53.595Z,96749.09
2022-07-25T06:45:24.136Z,96742.50
2022-07-25T06:47:54.787Z,96741.53
2022-07-25T06:50:23.133Z,96747.09
2022-07-25T06:52:51.894Z,96741.75
2022-07-25T06:55:20.496Z,96731.69
2022-07-25T06:57:48.841Z,96725.19
2022-07-25T07:00:17.886Z,96735.94
2022-07-25T07:02:51.902Z,96741.84
2022-07-25T07:05:23.343Z,96738.06
2022-07-25T07:07:51.932Z,96734.91
2022-07-25T07:10:20.855Z,96738.72
2022-07-25T07:12:50.308Z,96738.84
2022-07-25T07:15:20.874Z,96741.47
2022-07-25T07:17:49.301Z,96746.34
2022-07-25T07:20:17.847Z,96744.00
2022-07-25T07:22:50.244Z,96751.47
2022-07-25T07:25:24.960Z,96745.13
2022-07-25T07:28:07.913Z,96742.56
2022-07-25T07:31:05.576Z,96739.63
2022-07-25T07:33:24.941Z,96736.72
2022-07-25T07:35:57.273Z,96737.09
2022-07-25T07:38:27.713Z,96733.81
2022-07-25T07:40:59.331Z,96729.25
2022-07-25T07:43:31.935Z,96731.78
2022-07-25T07:46:02.048Z,96725.25
2022-07-25T07:48:31.407Z,96724.84
2022-07-25T07:51:01.013Z,96727.22
2022-07-25T07:53:45.210Z,96722.34
2022-07-25T07:56:13.958Z,96735.69
2022-07-25T07:58:42.293Z,96726.13
2022-07-25T08:01:10.590Z,96722.34
2022-07-25T08:03:39.291Z,96714.59
2022-07-25T08:06:08.467Z,96713.13
2022-07-25T08:08:38.066Z,96711.34
2022-07-25T08:11:06.773Z,96714.41
2022-07-25T08:13:38.003Z,96710.63
2022-07-25T08:16:07.834Z,96705.44
2022-07-25T08:18:36.192Z,96705.91
2022-07-25T08:21:06.433Z,96704.16
2022-07-25T08:23:38.969Z,96714.38
2022-07-25T08:26:08.168Z,96703.38
2022-07-25T08:28:36.426Z,96701.75
2022-07-25T08:31:04.878Z,96687.91
2022-07-25T08:33:33.392Z,96692.66
2022-07-25T08:36:01.913Z,96696.69
2022-07-25T08:38:30.653Z,96697.34
2022-07-25T08:41:02.862Z,96698.34
2022-07-25T08:43:33.711Z,96693.56
2022-07-25T08:46:03.450Z,96695.66
2022-07-25T08:48:32.230Z,96691.19
2022-07-25T08:51:04.173Z,96690.72
2022-07-25T08:53:35.061Z,96699.03
2022-07-25T08:56:12.564Z,96678.75
2022-07-25T08:58:44.793Z,96681.75
2022-07-25T09:01:13.753Z,96690.31
2022-07-25T09:03:44.117Z,96678.13
2022-07-25T09:06:18.903Z,96680.06
2022-07-25T09:08:56.014Z,96682.47
2022-07-25T09:11:34.555Z,96675.34
2022-07-25T09:14:07.093Z,96671.06
2022-07-25T09:16:40.311Z,96674.19
2022-07-25T09:19:16.060Z,96667.19
2022-07-25T09:21:46.565Z,96665.66
2022-07-25T09:24:22.491Z,96656.81
2022-07-25T09:26:58.067Z,96653.84
2022-07-25T09:29:29.011Z,96656.63
2022-07-25T09:31:59.989Z,96652.97
2022-07-25T09:34:38.034Z,96658.16
2022-07-25T09:37:08.921Z,96652.88
2022-07-25T09:39:45.810Z,96658.75
2022-07-25T09:42:26.799Z,96654.25
2022-07-25T09:45:06.408Z,96646.22
2022-07-25T09:47:50.227Z,96654.47
2022-07-25T09:50:20.052Z,96650.91
2022-07-25T09:52:48.701Z,96653.84
2022-07-25T09:55:17.081Z,96648.97
2022-07-25T09:57:47.281Z,96639.94
2022-07-25T10:00:21.404Z,96636.94
2022-07-25T10:02:59.518Z,96628.91
2022-07-25T10:05:46.078Z,96639.84
2022-07-25T10:08:14.970Z,96628.97
2022-07-25T10:10:44.043Z,96628.31
2022-07-25T10:13:18.028Z,96628.25
2022-07-25T10:15:50.138Z,96617.03
2022-07-25T10:18:22.191Z,96605.41
2022-07-25T10:20:54.632Z,96606.72
2022-07-25T10:23:25.986Z,96618.00
2022-07-25T10:26:09.075Z,96613.38
2022-07-25T10:28:43.337Z,96606.75
2022-07-25T10:31:22.959Z,96613.03
2022-07-25T10:33:57.313Z,96607.28
2022-07-25T10:36:29.399Z,96598.03
2022-07-25T10:39:02.792Z,96599.19
2022-07-25T10:41:31.088Z,96589.69
2022-07-25T10:44:04.011Z,96594.59
2022-07-25T10:46:36.732Z,96596.53
2022-07-25T10:49:08.425Z,96583.59
2022-07-25T10:51:41.820Z,96585.06
2022-07-25T10:54:15.641Z,96575.97
2022-07-25T10:56:55.398Z,96575.88
2022-07-25T10:59:35.908Z,96571.25
2022-07-25T11:02:06.605Z,96585.50
2022-07-25T11:04:35.631Z,96580.38
2022-07-25T11:07:11.257Z,96569.81
2022-07-25T11:09:40.703Z,96566.22
2022-07-25T11:12:10.154Z,96569.88
2022-07-25T11:14:42.665Z,96570.41
2022-07-25T11:17:15.688Z,96563.31
2022-07-25T11:19:46.159Z,96559.94
2022-07-25T11:22:14.493Z,96559.84
2022-07-25T11:24:45.213Z,96557.56
2022-07-25T11:27:21.467Z,96553.81
2022-07-25T11:29:51.667Z,96551.16
2022-07-25T11:32:21.045Z,96550.63
2022-07-25T11:34:53.905Z,96543.75
2022-07-25T11:37:23.174Z,96534.31
2022-07-25T11:39:52.955Z,96538.97
2022-07-25T11:42:22.486Z,96529.38
2022-07-25T11:44:54.523Z,96530.41
2022-07-25T11:47:28.667Z,96535.03
2022-07-25T11:49:59.230Z,96521.44
2022-07-25T11:52:31.199Z,96519.44
2022-07-25T11:55:02.055Z,96519.31
2022-07-25T11:57:33.877Z,96518.72
2022-07-25T12:00:09.100Z,96511.22
2022-07-25T12:02:37.900Z,96519.44
2022-07-25T12:05:09.592Z,96511.19
2022-07-25T12:07:40.841Z,96508.41
2022-07-25T12:10:13.201Z,96498.81
2022-07-25T12:12:48.638Z,96483.72
2022-07-25T12:15:22.274Z,96482.97
2022-07-25T12:17:51.875Z,96486.34
2022-07-25T12:20:22.587Z,96487.94
2022-07-25T12:22:53.482Z,96480.09
2022-07-25T12:25:26.324Z,96473.63
2022-07-25T12:27:58.790Z,96475.41
2022-07-25T12:30:30.315Z,96469.34
2022-07-25T12:33:00.105Z,96461.91
2022-07-25T12:35:29.707Z,96473.53
2022-07-25T12:37:58.324Z,96464.00
2022-07-25T12:40:27.229Z,96467.19
2022-07-25T12:42:55.528Z,96460.84
2022-07-25T12:45:24.470Z,96466.78
2022-07-25T12:47:54.650Z,96462.88
2022-07-25T12:50:25.679Z,96457.53
2022-07-25T12:52:54.548Z,96450.03
2022-07-25T12:55:23.018Z,96444.56
2022-07-25T12:57:52.538Z,96447.75
2022-07-25T13:00:23.630Z,96446.25
2022-07-25T13:02:55.972Z,96432.38
2022-07-25T13:05:25.915Z,96449.50
2022-07-25T13:07:54.365Z,96445.84
2022-07-25T13:10:22.766Z,96439.25
2022-07-25T13:12:51.836Z,96436.44
2022-07-25T13:15:23.261Z,96436.53
2022-07-25T13:17:53.863Z,96431.66
2022-07-25T13:20:22.307Z,96428.84
2022-07-25T13:22:50.942Z,96426.22
2022-07-25T13:25:19.661Z,96427.13
2022-07-25T13:27:49.558Z,96419.66
2022-07-25T13:30:18.268Z,96412.66
2022-07-25T13:32:46.777Z,96412.53
2022-07-25T13:35:20.427Z,96395.81
2022-07-25T13:37:50.255Z,96411.38
2022-07-25T13:40:18.535Z,96409.38
2022-07-25T13:42:46.879Z,96399.03
2022-07-25T13:45:15.523Z,96402.41
2022-07-25T13:47:43.946Z,96394.59
2022-07-25T13:50:12.385Z,96385.25
2022-07-25T13:52:42.090Z,96381.84
2022-07-25T13:55:12.226Z,96377.59
2022-07-25T13:57:40.511Z,96371.63
2022-07-25T14:00:10.871Z,96371.88
2022-07-25T14:02:39.494Z,96374.38
2022-07-25T14:05:10.530Z,96355.38
2022-07-25T14:07:38.929Z,96360.88
2022-07-25T14:10:10.590Z,96355.13
2022-07-25T14:12:40.559Z,96347.81
2022-07-25T14:15:10.814Z,96360.19
2022-07-25T14:17:39.877Z,96350.84
2022-07-25T14:20:10.839Z,96343.97
2022-07-25T14:22:39.648Z,96354.13
2022-07-25T14:25:11.119Z,96349.19
2022-07-25T14:27:40.238Z,96347.69
2022-07-25T14:30:11.196Z,96338.38
2022-07-25T14:32:39.578Z,96332.88
2022-07-25T14:35:11.042Z,96336.88
2022-07-25T14:37:40.506Z,96335.16
2022-07-25T14:40:12.417Z,96340.72
2022-07-25T14:42:41.899Z,96337.88
2022-07-25T14:45:12.489Z,96335.25
2022-07-25T14:47:42.615Z,96332.47
2022-07-25T14:50:11.803Z,96320.13
2022-07-25T14:52:40.414Z,96324.59
2022-07-25T14:55:11.249Z,96317.78
2022-07-25T14:57:39.571Z,96316.50
2022-07-25T15:00:10.167Z,96314.88
2022-07-25T15:02:38.420Z,96315.75
2022-07-25T15:05:08.637Z,96313.78
2022-07-25T15:07:38.547Z,96307.41
2022-07-25T15:10:10.526Z,96311.97
2022-07-25T15:12:39.255Z,96311.38
2022-07-25T15:15:08.714Z,96306.72
2022-07-25T15:17:37.215Z,96302.91
2022-07-25T15:20:07.542Z,96300.88
2022-07-25T15:22:36.304Z,96288.81
2022-07-25T15:27:56.140Z,96284.16
2022-07-25T15:30:29.186Z,96278.13
2022-07-25T15:32:57.806Z,96280.16
2022-07-25T15:35:26.201Z,96282.41
2022-07-25T15:37:54.494Z,96282.25
2022-07-25T15:40:23.263Z,96274.66
2022-07-25T15:42:52.258Z,96273.34
2022-07-25T15:45:38.028Z,96268.38
2022-07-25T15:48:09.547Z,96265.81
2022-07-25T15:50:40.721Z,96262.81
2022-07-25T15:53:10.525Z,96257.59
2022-07-25T15:55:42.204Z,96254.97
2022-07-25T15:58:12.381Z,96263.75
2022-07-25T16:00:43.230Z,96248.56
2022-07-25T16:03:13.764Z,96244.06
2022-07-25T16:05:44.195Z,96240.66
2022-07-25T16:08:12.507Z,96236.44
2022-07-25T16:10:41.653Z,96229.34
2022-07-25T16:13:10.276Z,96223.38
2022-07-25T16:15:39.694Z,96229.78
2022-07-25T16:18:11.249Z,96238.16
2022-07-25T16:20:39.902Z,96237.56
2022-07-25T16:23:11.037Z,96245.16
2022-07-25T16:25:39.901Z,96244.25
2022-07-25T16:28:08.207Z,96239.00
2022-07-25T16:30:36.963Z,96237.69
2022-07-25T16:33:07.390Z,96256.97
2022-07-25T16:35:37.178Z,96261.03
2022-07-25T16:38:09.727Z,96261.72
2022-07-25T16:40:38.330Z,96277.78
2022-07-25T16:43:07.244Z,96309.22
2022-07-25T16:45:38.027Z,96328.56
2022-07-25T16:48:08.406Z,96404.34
2022-07-25T16:50:38.692Z,96419.28
2022-07-25T16:53:07.923Z,96445.13
2022-07-25T16:55:36.577Z,96454.56
2022-07-25T16:58:04.891Z,96455.19
2022-07-25T17:00:33.542Z,96426.22
2022-07-25T17:03:02.609Z,96429.22
2022-07-25T17:05:31.271Z,96428.22
2022-07-25T17:08:00.930Z,96398.97
2022-07-25T17:10:34.351Z,96385.06
2022-07-25T17:13:12.428Z,96387.13
2022-07-25T17:16:59.681Z,96365.44
2022-07-25T17:20:04.693Z,96372.66
2022-07-25T17:22:54.158Z,96366.47
2022-07-25T17:26:35.016Z,96363.84
2022-07-25T17:33:13.327Z,96336.78
2022-07-25T17:35:42.706Z,96336.72
2022-07-25T17:38:14.381Z,96341.88
2022-07-25T17:40:43.964Z,96334.38
2022-07-25T17:43:14.922Z,96333.84
2022-07-25T17:45:44.141Z,96338.75
2022-07-25T17:48:13.622Z,96350.84
2022-07-25T17:50:45.413Z,96341.50
2022-07-25T17:53:18.649Z,96339.81
2022-07-25T17:55:48.570Z,96339.69
2022-07-25T17:58:21.694Z,96340.53
2022-07-25T18:00:59.546Z,96343.03
2022-07-25T18:03:50.298Z,96345.72
2022-07-25T18:07:30.186Z,96353.50
2022-07-25T18:10:04.359Z,96353.41
2022-07-25T18:12:39.787Z,96358.91
2022-07-25T18:15:16.732Z,96357.50
2022-07-25T18:17:48.590Z,96369.53
2022-07-25T18:20:18.816Z,96384.19
2022-07-25T18:22:48.721Z,96382.25
2022-07-25T18:25:18.738Z,96372.09
2022-07-25T18:27:49.234Z,96370.97
2022-07-25T18:30:19.105Z,96367.91
2022-07-25T18:32:47.616Z,96368.16
2022-07-25T18:35:15.919Z,96366.66
2022-07-25T18:37:44.339Z,96368.41
2022-07-25T18:40:13.944Z,96366.50
2022-07-25T18:42:42.285Z,96356.41
2022-07-25T18:45:12.628Z,96362.44
2022-07-25T18:47:42.570Z,96366.25
2022-07-25T18:50:11.514Z,96372.03
2022-07-25T18:52:40.474Z,96378.22
2022-07-25T18:55:10.618Z,96389.44
2022-07-25T18:57:39.504Z,96389.75
2022-07-25T19:00:10.695Z,96393.72
2022-07-25T19:02:39.166Z,96400.22
2022-07-25T19:05:10.319Z,96401.31
2022-07-25T19:07:39.896Z,96404.75
2022-07-25T19:10:09.200Z,96408.78
2022-07-25T19:12:37.976Z,96405.13
2022-07-25T19:15:07.870Z,96402.06
2022-07-25T19:17:37.692Z,96404.28
2022-07-25T19:20:09.601Z,96412.41
2022-07-25T19:22:37.877Z,96407.75
2022-07-25T19:25:08.514Z,96410.50
2022-07-25T19:27:38.129Z,96414.31
2022-07-25T19:30:13.879Z,96426.31
2022-07-25T19:32:46.334Z,96429.16
2022-07-25T19:35:16.061Z,96431.00
2022-07-25T19:37:44.335Z,96434.53
2022-07-25T19:40:13.881Z,96444.75
2022-07-25T19:42:42.664Z,96441.81
2022-07-25T19:45:12.255Z,96458.63
2022-07-25T19:47:40.504Z,96453.44
2022-07-25T19:50:10.004Z,96456.72
2022-07-25T19:52:39.856Z,96455.97
2022-07-25T19:55:10.019Z,96452.69
2022-07-25T19:57:38.456Z,96459.06
2022-07-25T20:00:08.757Z,96437.31
2022-07-25T20:02:41.597Z,96455.44
2022-07-25T20:05:12.293Z,96459.88
2022-07-25T20:07:41.921Z,96475.63
2022-07-25T20:10:11.518Z,96478.84
2022-07-25T20:12:41.590Z,96478.84
2022-07-25T20:15:10.483Z,96476.09
2022-07-25T20:17:39.184Z,96480.16
2022-07-25T20:20:09.321Z,96476.66
2022-07-25T20:22:38.660Z,96472.28
2022-07-25T20:25:11.737Z,96470.13
2022-07-25T20:27:40.291Z,96463.09
2022-07-25T20:30:11.683Z,96454.84
2022-07-25T20:32:40.360Z,96460.38
2022-07-25T20:35:09.443Z,96466.91
2022-07-25T20:37:38.086Z,96459.19
2022-07-25T20:40:11.979Z,96446.00
2022-07-25T20:42:40.494Z,96440.19
2022-07-25T20:45:10.268Z,96446.28
2022-07-25T20:47:38.915Z,96443.06
2022-07-25T20:50:09.585Z,96428.44
2022-07-25T20:52:40.157Z,96442.00
2022-07-25T20:55:10.804Z,96450.38
2022-07-25T20:57:39.070Z,96455.50
2022-07-25T21:00:09.014Z,96464.47
2022-07-25T21:02:37.424Z,96465.44
2022-07-25T21:05:06.932Z,96482.81
2022-07-25T21:07:35.309Z,96490.84
2022-07-25T21:10:03.538Z,96479.59
2022-07-25T21:12:33.362Z,96490.19
2022-07-25T21:15:02.108Z,96527.91
2022-07-25T21:17:30.585Z,96558.88
2022-07-25T21:19:58.930Z,96574.72
2022-07-25T21:22:27.386Z,96574.00
2022-07-25T21:24:55.733Z,96565.69
2022-07-25T21:27:24.040Z,96576.44
2022-07-25T21:29:53.676Z,96540.56
2022-07-25T21:32:23.506Z,96567.69
2022-07-25T21:34:52.173Z,96569.97
2022-07-25T21:37:20.427Z,96570.09
2022-07-25T21:39:49.025Z,96583.50
2022-07-25T21:42:17.698Z,96588.97
2022-07-25T21:44:46.680Z,96595.59
2022-07-25T21:47:16.421Z,96600.28
2022-07-25T21:50:13.793Z,96601.78
2022-07-25T21:52:47.716Z,96601.34
2022-07-25T21:55:16.877Z,96598.16
2022-07-25T21:57:45.445Z,96604.00
2022-07-25T22:00:15.851Z,96608.19
2022-07-25T22:02:47.569Z,96627.16
2022-07-25T22:05:18.710Z,96626.91
2022-07-25T22:07:48.556Z,96638.81
2022-07-25T22:10:19.541Z,96652.53
2022-07-25T22:12:48.378Z,96660.44
2022-07-25T22:15:17.279Z,96660.25
2022-07-25T22:17:49.482Z,96674.06
2022-07-25T22:20:19.171Z,96673.28
2022-07-25T22:22:47.751Z,96676.66
2022-07-25T22:25:16.257Z,96674.38
2022-07-25T22:27:45.005Z,96683.84
2022-07-25T22:30:18.859Z,96689.38
2022-07-25T22:32:49.879Z,96685.03
2022-07-25T22:35:19.154Z,96695.63
2022-07-25T22:37:47.587Z,96699.94
2022-07-25T22:40:16.230Z,96705.47
2022-07-25T22:42:44.530Z,96705.78
2022-07-25T22:45:12.946Z,96711.81
2022-07-25T22:47:41.326Z,96715.13
2022-07-25T22:50:11.678Z,96718.31
2022-07-25T22:52:39.959Z,96731.38
2022-07-25T22:55:09.389Z,96745.00
2022-07-25T22:57:37.901Z,96751.63
2022-07-25T23:00:11.126Z,96753.91
2022-07-25T23:02:39.867Z,96765.06
2022-07-25T23:05:10.966Z,96778.19
2022-07-25T23:07:39.600Z,96776.91
2022-07-25T23:10:09.292Z,96782.06
2022-07-25T23:12:37.745Z,96786.13
2022-07-25T23:15:07.247Z,96797.34
2022-07-25T23:17:35.495Z,96792.94
2022-07-25T23:20:04.739Z,96798.88
2022-07-25T23:22:34.522Z,96798.94
2022-07-25T23:25:03.017Z,96809.44
2022-07-25T23:27:34.905Z,96814.41
2022-07-25T23:30:05.049Z,96817.00
2022-07-25T23:32:33.478Z,96816.22
2022-07-25T23:35:01.747Z,96827.66
2022-07-25T23:37:29.980Z,96825.28
2022-07-25T23:39:59.675Z,96834.06
2022-07-25T23:42:28.020Z,96827.28
2022-07-25T23:44:56.376Z,96830.06
2022-07-25T23:47:36.784Z,96820.94
2022-07-25T23:50:10.710Z,96824.16
2022-07-25T23:52:39.535Z,96830.63
2022-07-25T23:55:10.828Z,96825.13
2022-07-25T23:57:39.031Z,96826.66
